sensor_id;sensor_type;location;lat;lon;timestamp;pressure;altitude;pressure_sealevel;temperature;humidity
45253;BME280;63171;50.520;30.486;2023-05-22T00:02:33;100362.44;;;17.83;43.47
45253;BME280;63171;50.520;30.486;2023-05-22T00:03:27;100366.91;;;17.83;43.48
45253;BME280;63171;50.520;30.486;2023-05-22T00:04:17;100363.81;;;17.78;43.66
45253;BME280;63171;50.520;30.486;2023-05-22T00:05:10;100364.31;;;17.71;43.47
45253;BME280;63171;50.520;30.486;2023-05-22T00:06:00;100362.13;;;17.77;43.53
45253;BME280;63171;50.520;30.486;2023-05-22T00:06:51;100367.03;;;17.81;43.52
45253;BME280;63171;50.520;30.486;2023-05-22T00:07:41;100368.84;;;17.81;43.61
45253;BME280;63171;50.520;30.486;2023-05-22T00:08:32;100363.28;;;17.84;43.75
45253;BME280;63171;50.520;30.486;2023-05-22T00:09:23;100364.38;;;17.81;43.61
45253;BME280;63171;50.520;30.486;2023-05-22T00:10:14;100360.06;;;17.80;43.70
45253;BME280;63171;50.520;30.486;2023-05-22T00:11:04;100367.75;;;17.83;43.61
45253;BME280;63171;50.520;30.486;2023-05-22T00:11:55;100365.84;;;17.53;43.57
45253;BME280;63171;50.520;30.486;2023-05-22T00:12:45;100362.53;;;17.61;43.66
45253;BME280;63171;50.520;30.486;2023-05-22T00:13:37;100366.00;;;17.61;43.63
45253;BME280;63171;50.520;30.486;2023-05-22T00:14:26;100359.44;;;17.56;43.80
45253;BME280;63171;50.520;30.486;2023-05-22T00:15:17;100364.16;;;17.52;43.73
45253;BME280;63171;50.520;30.486;2023-05-22T00:16:07;100358.84;;;17.52;44.08
45253;BME280;63171;50.520;30.486;2023-05-22T00:16:57;100364.72;;;17.56;43.84
45253;BME280;63171;50.520;30.486;2023-05-22T00:17:48;100371.31;;;17.40;43.78
45253;BME280;63171;50.520;30.486;2023-05-22T00:18:42;100367.81;;;17.40;44.07
45253;BME280;63171;50.520;30.486;2023-05-22T00:19:33;100364.16;;;17.52;44.20
45253;BME280;63171;50.520;30.486;2023-05-22T00:20:24;100366.97;;;17.60;44.08
45253;BME280;63171;50.520;30.486;2023-05-22T00:21:14;100363.25;;;17.63;44.10
45253;BME280;63171;50.520;30.486;2023-05-22T00:22:05;100363.00;;;17.66;44.21
45253;BME280;63171;50.520;30.486;2023-05-22T00:22:54;100367.94;;;17.59;44.33
45253;BME280;63171;50.520;30.486;2023-05-22T00:23:46;100359.88;;;17.61;44.39
45253;BME280;63171;50.520;30.486;2023-05-22T00:24:35;100361.88;;;17.48;44.55
45253;BME280;63171;50.520;30.486;2023-05-22T00:25:27;100363.75;;;17.57;44.36
45253;BME280;63171;50.520;30.486;2023-05-22T00:26:16;100363.06;;;17.55;44.51
45253;BME280;63171;50.520;30.486;2023-05-22T00:27:07;100360.63;;;17.63;44.49
45253;BME280;63171;50.520;30.486;2023-05-22T00:27:57;100366.34;;;17.68;44.62
45253;BME280;63171;50.520;30.486;2023-05-22T00:28:49;100361.31;;;17.65;44.76
45253;BME280;63171;50.520;30.486;2023-05-22T00:29:39;100369.75;;;17.70;44.59
45253;BME280;63171;50.520;30.486;2023-05-22T00:30:30;100364.88;;;17.75;44.66
45253;BME280;63171;50.520;30.486;2023-05-22T00:31:20;100366.56;;;17.76;44.83
45253;BME280;63171;50.520;30.486;2023-05-22T00:32:11;100357.41;;;17.80;44.68
45253;BME280;63171;50.520;30.486;2023-05-22T00:33:01;100363.69;;;17.79;44.65
45253;BME280;63171;50.520;30.486;2023-05-22T00:33:52;100358.38;;;17.79;44.92
45253;BME280;63171;50.520;30.486;2023-05-22T00:34:42;100365.34;;;17.80;44.80
45253;BME280;63171;50.520;30.486;2023-05-22T00:35:32;100355.97;;;17.76;44.93
45253;BME280;63171;50.520;30.486;2023-05-22T00:36:22;100358.19;;;17.71;44.93
45253;BME280;63171;50.520;30.486;2023-05-22T00:37:12;100359.84;;;17.72;45.03
45253;BME280;63171;50.520;30.486;2023-05-22T00:38:03;100357.69;;;17.66;45.00
45253;BME280;63171;50.520;30.486;2023-05-22T00:38:54;100362.91;;;17.56;44.97
45253;BME280;63171;50.520;30.486;2023-05-22T00:39:44;100362.47;;;17.51;45.07
45253;BME280;63171;50.520;30.486;2023-05-22T00:40:35;100354.19;;;17.44;45.16
45253;BME280;63171;50.520;30.486;2023-05-22T00:41:24;100357.72;;;17.34;45.06
45253;BME280;63171;50.520;30.486;2023-05-22T00:42:16;100356.44;;;17.28;45.31
45253;BME280;63171;50.520;30.486;2023-05-22T00:43:06;100360.34;;;17.34;45.55
45253;BME280;63171;50.520;30.486;2023-05-22T00:43:58;100354.84;;;17.37;45.51
45253;BME280;63171;50.520;30.486;2023-05-22T00:44:49;100358.69;;;17.33;45.73
45253;BME280;63171;50.520;30.486;2023-05-22T00:45:40;100354.63;;;17.29;45.76
45253;BME280;63171;50.520;30.486;2023-05-22T00:46:31;100351.97;;;17.29;45.82
45253;BME280;63171;50.520;30.486;2023-05-22T00:47:21;100356.69;;;17.25;45.80
45253;BME280;63171;50.520;30.486;2023-05-22T00:48:13;100352.84;;;17.18;45.85
45253;BME280;63171;50.520;30.486;2023-05-22T00:49:03;100355.03;;;17.13;46.02
45253;BME280;63171;50.520;30.486;2023-05-22T00:49:54;100355.66;;;17.05;46.00
45253;BME280;63171;50.520;30.486;2023-05-22T00:50:44;100349.91;;;17.00;46.19
45253;BME280;63171;50.520;30.486;2023-05-22T00:51:34;100349.06;;;17.00;46.05
45253;BME280;63171;50.520;30.486;2023-05-22T00:52:24;100355.31;;;16.99;46.15
45253;BME280;63171;50.520;30.486;2023-05-22T00:53:15;100353.66;;;16.98;46.16
45253;BME280;63171;50.520;30.486;2023-05-22T00:54:09;100345.84;;;16.96;46.40
45253;BME280;63171;50.520;30.486;2023-05-22T00:55:00;100346.19;;;16.92;46.48
45253;BME280;63171;50.520;30.486;2023-05-22T00:55:50;100348.97;;;16.90;46.57
45253;BME280;63171;50.520;30.486;2023-05-22T00:56:40;100341.03;;;16.90;46.49
45253;BME280;63171;50.520;30.486;2023-05-22T00:57:32;100341.38;;;16.97;46.71
45253;BME280;63171;50.520;30.486;2023-05-22T00:58:23;100344.50;;;16.91;46.50
45253;BME280;63171;50.520;30.486;2023-05-22T00:59:16;100340.19;;;16.90;46.61
45253;BME280;63171;50.520;30.486;2023-05-22T01:00:07;100350.06;;;16.88;46.63
45253;BME280;63171;50.520;30.486;2023-05-22T01:01:00;100346.91;;;16.82;46.71
45253;BME280;63171;50.520;30.486;2023-05-22T01:01:50;100348.28;;;16.77;46.58
45253;BME280;63171;50.520;30.486;2023-05-22T01:02:39;100351.75;;;16.77;46.62
45253;BME280;63171;50.520;30.486;2023-05-22T01:03:31;100346.47;;;16.77;46.71
45253;BME280;63171;50.520;30.486;2023-05-22T01:04:22;100351.03;;;16.75;46.68
45253;BME280;63171;50.520;30.486;2023-05-22T01:05:13;100345.16;;;16.72;46.78
45253;BME280;63171;50.520;30.486;2023-05-22T01:06:06;100338.91;;;16.73;46.58
45253;BME280;63171;50.520;30.486;2023-05-22T01:06:57;100345.16;;;16.72;46.70
45253;BME280;63171;50.520;30.486;2023-05-22T01:07:47;100344.06;;;16.74;46.77
45253;BME280;63171;50.520;30.486;2023-05-22T01:08:38;100345.63;;;16.77;46.71
45253;BME280;63171;50.520;30.486;2023-05-22T01:09:28;100342.38;;;16.73;46.75
45253;BME280;63171;50.520;30.486;2023-05-22T01:10:19;100343.69;;;16.68;46.59
45253;BME280;63171;50.520;30.486;2023-05-22T01:11:14;100340.44;;;16.64;46.81
45253;BME280;63171;50.520;30.486;2023-05-22T01:12:12;100340.69;;;16.61;46.59
45253;BME280;63171;50.520;30.486;2023-05-22T01:13:11;100338.75;;;16.63;46.72
45253;BME280;63171;50.520;30.486;2023-05-22T01:14:08;100339.84;;;16.61;46.73
45253;BME280;63171;50.520;30.486;2023-05-22T01:15:14;100343.22;;;16.63;46.84
45253;BME280;63171;50.520;30.486;2023-05-22T01:16:14;100336.97;;;16.64;46.80
45253;BME280;63171;50.520;30.486;2023-05-22T01:17:12;100341.28;;;16.65;46.44
45253;BME280;63171;50.520;30.486;2023-05-22T01:18:14;100340.31;;;16.66;46.88
45253;BME280;63171;50.520;30.486;2023-05-22T01:19:14;100342.97;;;16.66;46.79
45253;BME280;63171;50.520;30.486;2023-05-22T01:20:16;100341.41;;;16.74;46.92
45253;BME280;63171;50.520;30.486;2023-05-22T01:21:13;100347.81;;;16.72;46.87
45253;BME280;63171;50.520;30.486;2023-05-22T01:22:14;100344.78;;;16.76;46.79
45253;BME280;63171;50.520;30.486;2023-05-22T01:23:33;100343.69;;;16.79;46.96
45253;BME280;63171;50.520;30.486;2023-05-22T01:28:47;100328.06;;;16.65;47.12
45253;BME280;63171;50.520;30.486;2023-05-22T01:29:47;100334.94;;;16.67;47.16
45253;BME280;63171;50.520;30.486;2023-05-22T01:30:49;100333.50;;;16.74;47.21
45253;BME280;63171;50.520;30.486;2023-05-22T01:31:44;100332.28;;;16.78;47.13
45253;BME280;63171;50.520;30.486;2023-05-22T01:32:36;100331.81;;;16.73;47.21
45253;BME280;63171;50.520;30.486;2023-05-22T01:33:31;100336.47;;;16.81;47.17
45253;BME280;63171;50.520;30.486;2023-05-22T01:34:22;100331.53;;;16.88;47.24
45253;BME280;63171;50.520;30.486;2023-05-22T01:35:15;100335.16;;;16.87;47.39
45253;BME280;63171;50.520;30.486;2023-05-22T01:36:06;100329.97;;;16.85;47.40
45253;BME280;63171;50.520;30.486;2023-05-22T01:36:59;100335.41;;;16.83;47.31
45253;BME280;63171;50.520;30.486;2023-05-22T01:37:50;100331.53;;;16.88;47.30
45253;BME280;63171;50.520;30.486;2023-05-22T01:38:41;100329.72;;;16.88;47.38
45253;BME280;63171;50.520;30.486;2023-05-22T01:39:31;100329.97;;;16.85;47.48
45253;BME280;63171;50.520;30.486;2023-05-22T01:40:23;100329.38;;;16.81;47.29
45253;BME280;63171;50.520;30.486;2023-05-22T01:41:14;100327.56;;;16.82;47.37
45253;BME280;63171;50.520;30.486;2023-05-22T01:42:06;100330.13;;;16.83;47.53
45253;BME280;63171;50.520;30.486;2023-05-22T01:42:57;100321.44;;;16.81;47.50
45253;BME280;63171;50.520;30.486;2023-05-22T01:43:48;100328.78;;;16.78;47.59
45253;BME280;63171;50.520;30.486;2023-05-22T01:44:38;100328.06;;;16.76;47.47
45253;BME280;63171;50.520;30.486;2023-05-22T01:45:30;100331.56;;;16.76;47.51
45253;BME280;63171;50.520;30.486;2023-05-22T01:46:24;100329.28;;;16.72;47.46
45253;BME280;63171;50.520;30.486;2023-05-22T01:47:15;100326.13;;;16.67;47.64
45253;BME280;63171;50.520;30.486;2023-05-22T01:48:06;100332.16;;;16.69;47.56
45253;BME280;63171;50.520;30.486;2023-05-22T01:48:57;100341.06;;;16.68;47.59
45253;BME280;63171;50.520;30.486;2023-05-22T01:49:46;100335.88;;;16.77;47.74
45253;BME280;63171;50.520;30.486;2023-05-22T01:50:37;100342.13;;;16.88;47.81
45253;BME280;63171;50.520;30.486;2023-05-22T01:51:30;100336.00;;;16.87;47.74
45253;BME280;63171;50.520;30.486;2023-05-22T01:52:27;100334.88;;;16.90;47.84
45253;BME280;63171;50.520;30.486;2023-05-22T01:53:27;100339.94;;;16.81;47.65
45253;BME280;63171;50.520;30.486;2023-05-22T01:54:23;100335.41;;;16.72;47.71
45253;BME280;63171;50.520;30.486;2023-05-22T01:55:19;100340.22;;;16.67;47.76
45253;BME280;63171;50.520;30.486;2023-05-22T01:56:19;100337.78;;;16.64;47.88
45253;BME280;63171;50.520;30.486;2023-05-22T01:57:26;100335.53;;;16.60;47.73
45253;BME280;63171;50.520;30.486;2023-05-22T01:58:26;100335.88;;;16.55;47.84
45253;BME280;63171;50.520;30.486;2023-05-22T01:59:19;100334.94;;;16.45;47.81
45253;BME280;63171;50.520;30.486;2023-05-22T02:00:14;100333.72;;;16.38;47.79
45253;BME280;63171;50.520;30.486;2023-05-22T02:01:09;100331.81;;;16.40;47.98
45253;BME280;63171;50.520;30.486;2023-05-22T02:02:05;100337.09;;;16.40;48.04
45253;BME280;63171;50.520;30.486;2023-05-22T02:02:58;100335.53;;;16.37;48.13
45253;BME280;63171;50.520;30.486;2023-05-22T02:03:54;100338.31;;;16.36;48.25
45253;BME280;63171;50.520;30.486;2023-05-22T02:04:47;100339.41;;;16.33;48.30
45253;BME280;63171;50.520;30.486;2023-05-22T02:05:42;100335.53;;;16.26;48.22
45253;BME280;63171;50.520;30.486;2023-05-22T02:06:32;100328.69;;;16.23;48.30
45253;BME280;63171;50.520;30.486;2023-05-22T02:07:23;100342.03;;;16.22;48.36
45253;BME280;63171;50.520;30.486;2023-05-22T02:08:15;100336.03;;;16.20;48.41
45253;BME280;63171;50.520;30.486;2023-05-22T02:09:06;100325.72;;;16.17;48.46
45253;BME280;63171;50.520;30.486;2023-05-22T02:10:01;100332.03;;;16.14;48.65
45253;BME280;63171;50.520;30.486;2023-05-22T02:10:53;100335.06;;;16.10;48.67
45253;BME280;63171;50.520;30.486;2023-05-22T02:11:46;100329.41;;;16.03;48.60
45253;BME280;63171;50.520;30.486;2023-05-22T02:12:38;100328.78;;;16.00;48.77
45253;BME280;63171;50.520;30.486;2023-05-22T02:13:27;100330.34;;;16.02;48.71
45253;BME280;63171;50.520;30.486;2023-05-22T02:14:19;100331.31;;;16.01;48.80
45253;BME280;63171;50.520;30.486;2023-05-22T02:15:09;100333.63;;;16.06;48.83
45253;BME280;63171;50.520;30.486;2023-05-22T02:16:00;100333.63;;;16.06;48.88
45253;BME280;63171;50.520;30.486;2023-05-22T02:16:52;100337.22;;;16.05;48.95
45253;BME280;63171;50.520;30.486;2023-05-22T02:17:44;100342.03;;;16.11;48.92
45253;BME280;63171;50.520;30.486;2023-05-22T02:18:36;100339.97;;;16.14;49.00
45253;BME280;63171;50.520;30.486;2023-05-22T02:19:33;100343.34;;;16.27;49.22
45253;BME280;63171;50.520;30.486;2023-05-22T02:20:22;100334.81;;;16.35;49.04
45253;BME280;63171;50.520;30.486;2023-05-22T02:21:13;100338.44;;;16.45;49.28
45253;BME280;63171;50.520;30.486;2023-05-22T02:22:03;100334.44;;;16.40;49.29
45253;BME280;63171;50.520;30.486;2023-05-22T02:22:53;100337.94;;;16.40;49.19
45253;BME280;63171;50.520;30.486;2023-05-22T02:23:43;100335.91;;;16.44;49.19
45253;BME280;63171;50.520;30.486;2023-05-22T02:24:34;100337.47;;;16.46;49.01
45253;BME280;63171;50.520;30.486;2023-05-22T02:25:25;100343.72;;;16.45;49.17
45253;BME280;63171;50.520;30.486;2023-05-22T02:26:16;100336.00;;;16.42;49.02
45253;BME280;63171;50.520;30.486;2023-05-22T02:27:06;100337.59;;;16.45;49.17
45253;BME280;63171;50.520;30.486;2023-05-22T02:27:58;100335.16;;;16.42;49.02
45253;BME280;63171;50.520;30.486;2023-05-22T02:28:48;100334.31;;;16.41;49.28
45253;BME280;63171;50.520;30.486;2023-05-22T02:29:39;100334.22;;;16.43;49.10
45253;BME280;63171;50.520;30.486;2023-05-22T02:30:29;100331.47;;;16.44;49.12
45253;BME280;63171;50.520;30.486;2023-05-22T02:31:20;100333.25;;;16.44;49.22
45253;BME280;63171;50.520;30.486;2023-05-22T02:32:09;100329.88;;;16.42;49.27
45253;BME280;63171;50.520;30.486;2023-05-22T02:33:01;100334.22;;;16.43;49.08
45253;BME280;63171;50.520;30.486;2023-05-22T02:33:53;100329.78;;;16.43;49.19
45253;BME280;63171;50.520;30.486;2023-05-22T02:34:44;100332.44;;;16.43;49.34
45253;BME280;63171;50.520;30.486;2023-05-22T02:35:34;100331.47;;;16.44;49.19
45253;BME280;63171;50.520;30.486;2023-05-22T02:36:25;100334.94;;;16.45;49.38
45253;BME280;63171;50.520;30.486;2023-05-22T02:37:15;100333.97;;;16.46;49.13
45253;BME280;63171;50.520;30.486;2023-05-22T02:38:06;100333.00;;;16.47;49.14
45253;BME280;63171;50.520;30.486;2023-05-22T02:38:56;100326.06;;;16.46;49.15
45253;BME280;63171;50.520;30.486;2023-05-22T02:39:46;100337.81;;;16.53;49.30
45253;BME280;63171;50.520;30.486;2023-05-22T02:40:36;100330.81;;;16.63;49.23
45253;BME280;63171;50.520;30.486;2023-05-22T02:41:27;100331.22;;;16.70;49.15
45253;BME280;63171;50.520;30.486;2023-05-22T02:42:17;100329.75;;;16.77;49.36
45253;BME280;63171;50.520;30.486;2023-05-22T02:43:08;100330.59;;;16.77;49.15
45253;BME280;63171;50.520;30.486;2023-05-22T02:43:59;100325.03;;;16.80;49.19
45253;BME280;63171;50.520;30.486;2023-05-22T02:44:50;100323.25;;;16.81;49.07
45253;BME280;63171;50.520;30.486;2023-05-22T02:45:39;100329.03;;;16.86;49.24
45253;BME280;63171;50.520;30.486;2023-05-22T02:46:29;100333.22;;;16.89;49.04
45253;BME280;63171;50.520;30.486;2023-05-22T02:47:19;100332.13;;;16.91;49.09
45253;BME280;63171;50.520;30.486;2023-05-22T02:48:10;100335.59;;;16.92;49.05
45253;BME280;63171;50.520;30.486;2023-05-22T02:49:01;100330.19;;;16.93;48.91
45253;BME280;63171;50.520;30.486;2023-05-22T02:49:51;100333.53;;;16.95;49.03
45253;BME280;63171;50.520;30.486;2023-05-22T02:50:42;100338.47;;;17.00;48.95
45253;BME280;63171;50.520;30.486;2023-05-22T02:51:32;100335.72;;;17.01;49.08
45253;BME280;63171;50.520;30.486;2023-05-22T02:52:23;100338.22;;;17.03;49.13
45253;BME280;63171;50.520;30.486;2023-05-22T02:53:13;100335.31;;;17.06;49.06
45253;BME280;63171;50.520;30.486;2023-05-22T02:54:05;100327.88;;;17.11;48.86
45253;BME280;63171;50.520;30.486;2023-05-22T02:54:55;100338.63;;;17.19;49.04
45253;BME280;63171;50.520;30.486;2023-05-22T02:55:46;100335.72;;;17.22;48.99
45253;BME280;63171;50.520;30.486;2023-05-22T02:56:36;100331.19;;;17.24;48.82
45253;BME280;63171;50.520;30.486;2023-05-22T02:57:27;100344.28;;;17.26;49.00
45253;BME280;63171;50.520;30.486;2023-05-22T02:58:16;100338.03;;;17.27;48.83
45253;BME280;63171;50.520;30.486;2023-05-22T02:59:07;100330.66;;;17.30;48.96
45253;BME280;63171;50.520;30.486;2023-05-22T02:59:57;100329.69;;;17.31;48.86
45253;BME280;63171;50.520;30.486;2023-05-22T03:00:48;100330.88;;;17.38;48.74
45253;BME280;63171;50.520;30.486;2023-05-22T03:01:37;100333.41;;;17.40;48.62
45253;BME280;63171;50.520;30.486;2023-05-22T03:02:28;100332.28;;;17.42;48.71
45253;BME280;63171;50.520;30.486;2023-05-22T03:03:22;100332.03;;;17.46;48.72
45253;BME280;63171;50.520;30.486;2023-05-22T03:04:13;100333.72;;;17.47;48.53
45253;BME280;63171;50.520;30.486;2023-05-22T03:05:04;100340.53;;;17.49;48.53
45253;BME280;63171;50.520;30.486;2023-05-22T03:05:56;100335.84;;;17.53;48.39
45253;BME280;63171;50.520;30.486;2023-05-22T03:06:46;100341.88;;;17.55;48.28
45253;BME280;63171;50.520;30.486;2023-05-22T03:07:37;100333.53;;;17.59;48.13
45253;BME280;63171;50.520;30.486;2023-05-22T03:08:27;100338.56;;;17.62;48.23
45253;BME280;63171;50.520;30.486;2023-05-22T03:09:18;100335.44;;;17.68;48.10
45253;BME280;63171;50.520;30.486;2023-05-22T03:10:09;100341.31;;;17.72;48.08
45253;BME280;63171;50.520;30.486;2023-05-22T03:11:00;100334.78;;;17.76;48.05
45253;BME280;63171;50.520;30.486;2023-05-22T03:11:49;100336.22;;;17.80;47.96
45253;BME280;63171;50.520;30.486;2023-05-22T03:12:40;100329.53;;;17.86;48.01
45253;BME280;63171;50.520;30.486;2023-05-22T03:13:30;100336.28;;;17.90;47.80
45253;BME280;63171;50.520;30.486;2023-05-22T03:14:21;100330.09;;;17.89;47.77
45253;BME280;63171;50.520;30.486;2023-05-22T03:15:10;100332.53;;;17.92;47.60
45253;BME280;63171;50.520;30.486;2023-05-22T03:16:03;100334.91;;;17.95;47.59
45253;BME280;63171;50.520;30.486;2023-05-22T03:16:54;100337.00;;;18.01;46.94
45253;BME280;63171;50.520;30.486;2023-05-22T03:17:45;100337.47;;;18.07;47.30
45253;BME280;63171;50.520;30.486;2023-05-22T03:18:37;100336.50;;;18.08;47.24
45253;BME280;63171;50.520;30.486;2023-05-22T03:19:28;100341.41;;;18.12;47.17
45253;BME280;63171;50.520;30.486;2023-05-22T03:20:19;100341.97;;;18.16;47.25
45253;BME280;63171;50.520;30.486;2023-05-22T03:21:10;100337.25;;;18.19;47.00
45253;BME280;63171;50.520;30.486;2023-05-22T03:22:00;100336.84;;;18.24;46.95
45253;BME280;63171;50.520;30.486;2023-05-22T03:22:53;100344.16;;;18.31;46.94
45253;BME280;63171;50.520;30.486;2023-05-22T03:23:43;100345.56;;;18.36;46.80
45253;BME280;63171;50.520;30.486;2023-05-22T03:24:34;100338.16;;;18.39;46.84
45253;BME280;63171;50.520;30.486;2023-05-22T03:25:24;100340.69;;;18.41;46.62
45253;BME280;63171;50.520;30.486;2023-05-22T03:26:15;100333.19;;;18.46;46.62
45253;BME280;63171;50.520;30.486;2023-05-22T03:27:05;100338.78;;;18.52;46.62
45253;BME280;63171;50.520;30.486;2023-05-22T03:28:01;100335.00;;;18.55;46.45
45253;BME280;63171;50.520;30.486;2023-05-22T03:28:55;100336.69;;;18.56;46.24
45253;BME280;63171;50.520;30.486;2023-05-22T03:29:47;100340.38;;;18.65;46.42
45253;BME280;63171;50.520;30.486;2023-05-22T03:30:38;100336.47;;;18.69;46.30
45253;BME280;63171;50.520;30.486;2023-05-22T03:31:37;100340.56;;;18.73;46.23
45253;BME280;63171;50.520;30.486;2023-05-22T03:32:33;100340.28;;;18.76;46.10
45253;BME280;63171;50.520;30.486;2023-05-22T03:33:26;100339.16;;;18.78;46.16
45253;BME280;63171;50.520;30.486;2023-05-22T03:34:17;100338.31;;;18.78;45.98
45253;BME280;63171;50.520;30.486;2023-05-22T03:35:11;100336.09;;;18.83;45.96
45253;BME280;63171;50.520;30.486;2023-05-22T03:36:05;100338.06;;;18.90;46.05
45253;BME280;63171;50.520;30.486;2023-05-22T03:36:56;100341.13;;;18.96;45.78
45253;BME280;63171;50.520;30.486;2023-05-22T03:37:47;100345.91;;;19.02;45.76
45253;BME280;63171;50.520;30.486;2023-05-22T03:38:37;100343.81;;;19.05;45.81
45253;BME280;63171;50.520;30.486;2023-05-22T03:39:29;100344.25;;;19.10;45.66
45253;BME280;63171;50.520;30.486;2023-05-22T03:40:23;100345.66;;;19.14;45.50
45253;BME280;63171;50.520;30.486;2023-05-22T03:41:14;100347.59;;;19.12;45.33
45253;BME280;63171;50.520;30.486;2023-05-22T03:42:04;100342.28;;;19.12;45.28
45253;BME280;63171;50.520;30.486;2023-05-22T03:42:57;100344.38;;;19.18;45.34
45253;BME280;63171;50.520;30.486;2023-05-22T03:43:47;100340.59;;;19.21;45.32
45253;BME280;63171;50.520;30.486;2023-05-22T03:44:37;100341.03;;;19.26;45.34
45253;BME280;63171;50.520;30.486;2023-05-22T03:45:28;100346.22;;;19.28;44.99
45253;BME280;63171;50.520;30.486;2023-05-22T03:46:20;100352.22;;;19.20;44.91
45253;BME280;63171;50.520;30.486;2023-05-22T03:47:10;100351.22;;;19.02;45.06
45253;BME280;63171;50.520;30.486;2023-05-22T03:48:00;100355.13;;;19.07;44.85
45253;BME280;63171;50.520;30.486;2023-05-22T03:48:50;100344.38;;;19.09;44.84
45253;BME280;63171;50.520;30.486;2023-05-22T03:49:42;100346.63;;;19.13;44.91
45253;BME280;63171;50.520;30.486;2023-05-22T03:50:32;100336.72;;;19.25;44.88
45253;BME280;63171;50.520;30.486;2023-05-22T03:51:23;100335.84;;;19.34;44.94
45253;BME280;63171;50.520;30.486;2023-05-22T03:52:12;100340.63;;;19.40;44.58
45253;BME280;63171;50.520;30.486;2023-05-22T03:53:03;100333.59;;;19.49;44.67
45253;BME280;63171;50.520;30.486;2023-05-22T03:53:54;100333.94;;;19.56;44.61
45253;BME280;63171;50.520;30.486;2023-05-22T03:54:44;100340.34;;;19.63;44.44
45253;BME280;63171;50.520;30.486;2023-05-22T03:55:34;100347.75;;;19.69;44.40
45253;BME280;63171;50.520;30.486;2023-05-22T03:56:26;100343.00;;;19.72;44.31
45253;BME280;63171;50.520;30.486;2023-05-22T03:57:15;100341.59;;;19.78;44.26
45253;BME280;63171;50.520;30.486;2023-05-22T03:58:08;100340.63;;;19.79;43.98
45253;BME280;63171;50.520;30.486;2023-05-22T03:58:58;100338.06;;;19.87;43.86
45253;BME280;63171;50.520;30.486;2023-05-22T03:59:49;100333.56;;;19.97;44.05
45253;BME280;63171;50.520;30.486;2023-05-22T04:00:39;100337.34;;;20.04;43.92
45253;BME280;63171;50.520;30.486;2023-05-22T04:01:31;100333.25;;;20.10;43.60
45253;BME280;63171;50.520;30.486;2023-05-22T04:02:21;100337.44;;;20.13;43.62
45253;BME280;63171;50.520;30.486;2023-05-22T04:03:14;100332.81;;;20.15;43.61
45253;BME280;63171;50.520;30.486;2023-05-22T04:04:07;100330.84;;;20.17;43.68
45253;BME280;63171;50.520;30.486;2023-05-22T04:05:01;100330.41;;;20.21;43.27
45253;BME280;63171;50.520;30.486;2023-05-22T04:05:51;100326.72;;;20.32;43.45
45253;BME280;63171;50.520;30.486;2023-05-22T04:06:42;100337.34;;;20.42;43.46
45253;BME280;63171;50.520;30.486;2023-05-22T04:07:32;100333.69;;;20.43;43.46
45253;BME280;63171;50.520;30.486;2023-05-22T04:08:23;100334.41;;;20.45;43.05
45253;BME280;63171;50.520;30.486;2023-05-22T04:09:13;100334.09;;;20.48;43.07
45253;BME280;63171;50.520;30.486;2023-05-22T04:10:05;100337.84;;;20.55;43.07
45253;BME280;63171;50.520;30.486;2023-05-22T04:10:55;100328.44;;;20.60;43.20
45253;BME280;63171;50.520;30.486;2023-05-22T04:11:46;100326.63;;;20.61;43.04
45253;BME280;63171;50.520;30.486;2023-05-22T04:12:37;100332.16;;;20.67;42.95
45253;BME280;63171;50.520;30.486;2023-05-22T04:13:28;100331.28;;;20.77;42.62
45253;BME280;63171;50.520;30.486;2023-05-22T04:14:19;100339.91;;;20.88;42.49
45253;BME280;63171;50.520;30.486;2023-05-22T04:15:10;100328.34;;;20.98;42.74
45253;BME280;63171;50.520;30.486;2023-05-22T04:16:00;100324.75;;;21.07;42.30
45253;BME280;63171;50.520;30.486;2023-05-22T04:16:51;100335.97;;;21.10;42.41
45253;BME280;63171;50.520;30.486;2023-05-22T04:17:41;100324.84;;;21.15;42.13
45253;BME280;63171;50.520;30.486;2023-05-22T04:18:32;100330.13;;;21.24;41.75
45253;BME280;63171;50.520;30.486;2023-05-22T04:19:22;100334.69;;;21.32;41.92
45253;BME280;63171;50.520;30.486;2023-05-22T04:20:14;100332.03;;;21.32;41.69
45253;BME280;63171;50.520;30.486;2023-05-22T04:21:04;100327.53;;;21.33;41.76
45253;BME280;63171;50.520;30.486;2023-05-22T04:21:58;100322.13;;;21.42;41.51
45253;BME280;63171;50.520;30.486;2023-05-22T04:22:48;100333.72;;;21.51;41.27
45253;BME280;63171;50.520;30.486;2023-05-22T04:23:39;100326.06;;;21.56;41.14
45253;BME280;63171;50.520;30.486;2023-05-22T04:24:31;100330.00;;;21.70;40.87
45253;BME280;63171;50.520;30.486;2023-05-22T04:25:22;100340.03;;;21.76;40.62
45253;BME280;63171;50.520;30.486;2023-05-22T04:26:12;100334.09;;;21.82;40.17
45253;BME280;63171;50.520;30.486;2023-05-22T04:27:03;100343.34;;;21.96;40.17
45253;BME280;63171;50.520;30.486;2023-05-22T04:27:52;100337.38;;;22.02;40.05
45253;BME280;63171;50.520;30.486;2023-05-22T04:28:43;100336.25;;;22.04;39.46
45253;BME280;63171;50.520;30.486;2023-05-22T04:29:35;100333.78;;;21.85;39.26
45253;BME280;63171;50.520;30.486;2023-05-22T04:30:25;100330.69;;;21.72;39.06
45253;BME280;63171;50.520;30.486;2023-05-22T04:31:15;100333.19;;;21.73;39.30
45253;BME280;63171;50.520;30.486;2023-05-22T04:32:06;100336.34;;;21.95;38.99
45253;BME280;63171;50.520;30.486;2023-05-22T04:32:58;100329.63;;;22.08;39.30
45253;BME280;63171;50.520;30.486;2023-05-22T04:33:52;100331.34;;;22.18;38.94